createdAt,value
2023-02-06T00:01:26.137Z,100.00
2023-02-06T00:03:52.988Z,100.00
2023-02-06T00:06:19.962Z,100.00
2023-02-06T00:08:47.496Z,100.00
2023-02-06T00:11:16.121Z,100.00
2023-02-06T00:13:44.756Z,100.00
2023-02-06T00:16:32.510Z,100.00
2023-02-06T00:19:01.204Z,100.00
2023-02-06T00:21:28.578Z,100.00
2023-02-06T00:23:56.753Z,100.00
2023-02-06T00:26:24.081Z,100.00
2023-02-06T00:28:51.031Z,100.00
2023-02-06T00:31:18.011Z,100.00
2023-02-06T00:33:44.998Z,100.00
2023-02-06T00:36:11.698Z,100.00
2023-02-06T00:38:38.775Z,100.00
2023-02-06T00:41:06.074Z,100.00
2023-02-06T00:43:33.084Z,100.00
2023-02-06T00:45:59.793Z,100.00
2023-02-06T00:48:27.001Z,100.00
2023-02-06T00:50:54.039Z,100.00
2023-02-06T00:53:20.921Z,100.00
2023-02-06T00:55:47.903Z,100.00
2023-02-06T00:58:14.645Z,100.00
2023-02-06T01:00:43.579Z,100.00
2023-02-06T01:03:10.677Z,100.00
2023-02-06T01:05:37.946Z,100.00
2023-02-06T01:08:05.147Z,100.00
2023-02-06T01:10:32.122Z,100.00
2023-02-06T01:13:00.076Z,100.00
2023-02-06T01:15:31.642Z,100.00
2023-02-06T01:18:00.523Z,100.00
2023-02-06T01:20:27.868Z,100.00
2023-02-06T01:22:54.498Z,100.00
2023-02-06T01:25:21.450Z,100.00
2023-02-06T01:27:48.847Z,100.00
2023-02-06T01:30:15.693Z,100.00
2023-02-06T01:32:43.377Z,100.00
2023-02-06T01:35:10.464Z,100.00
2023-02-06T01:37:37.517Z,100.00
2023-02-06T01:40:05.658Z,100.00
2023-02-06T01:42:36.602Z,100.00
2023-02-06T01:45:25.253Z,100.00
2023-02-06T01:47:54.838Z,100.00
2023-02-06T01:50:21.464Z,100.00
2023-02-06T01:52:48.162Z,100.00
2023-02-06T01:55:14.818Z,100.00
2023-02-06T01:57:42.486Z,100.00
2023-02-06T02:00:10.057Z,100.00
2023-02-06T02:02:42.669Z,100.00
2023-02-06T02:05:09.433Z,100.00
2023-02-06T02:07:37.755Z,100.00
2023-02-06T02:10:07.838Z,100.00
2023-02-06T02:12:34.838Z,100.00
2023-02-06T02:15:05.200Z,100.00
2023-02-06T02:17:47.089Z,100.00
2023-02-06T02:20:52.465Z,100.00
2023-02-06T02:23:40.120Z,100.00
2023-02-06T02:26:25.962Z,100.00
2023-02-06T02:29:08.059Z,100.00
2023-02-06T02:31:45.490Z,100.00
2023-02-06T02:34:17.416Z,100.00
2023-02-06T02:37:19.996Z,100.00
2023-02-06T02:39:55.543Z,100.00
2023-02-06T02:42:22.247Z,100.00
2023-02-06T02:44:59.942Z,100.00
2023-02-06T02:47:29.550Z,100.00
2023-02-06T02:49:59.645Z,100.00
2023-02-06T02:52:26.724Z,100.00
2023-02-06T02:54:53.773Z,100.00
2023-02-06T02:57:26.861Z,100.00
2023-02-06T02:59:53.915Z,100.00
2023-02-06T03:02:23.159Z,100.00
2023-02-06T03:04:55.539Z,100.00
2023-02-06T03:07:38.702Z,100.00
2023-02-06T03:10:22.331Z,100.00
2023-02-06T03:12:56.000Z,100.00
2023-02-06T03:15:41.340Z,100.00
2023-02-06T03:18:14.617Z,100.00
2023-02-06T03:20:44.144Z,100.00
2023-02-06T03:23:19.885Z,100.00
2023-02-06T03:25:47.492Z,100.00
2023-02-06T03:28:20.405Z,100.00
2023-02-06T03:30:48.572Z,100.00
2023-02-06T03:33:17.094Z,100.00
2023-02-06T03:35:44.094Z,100.00
2023-02-06T03:38:10.832Z,100.00
2023-02-06T03:40:38.269Z,100.00
2023-02-06T03:43:05.891Z,100.00
2023-02-06T03:45:42.361Z,100.00
2023-02-06T03:48:16.259Z,100.00
2023-02-06T03:50:43.606Z,100.00
2023-02-06T03:53:11.004Z,100.00
2023-02-06T03:55:38.257Z,100.00
2023-02-06T03:58:08.358Z,100.00
2023-02-06T04:00:35.939Z,100.00
2023-02-06T04:03:03.010Z,100.00
2023-02-06T04:05:30.039Z,100.00
2023-02-06T04:07:57.276Z,100.00
2023-02-06T04:10:26.162Z,100.00
2023-02-06T04:12:53.503Z,100.00
2023-02-06T04:15:20.969Z,100.00
2023-02-06T04:17:59.348Z,100.00
2023-02-06T04:20:28.499Z,100.00
2023-02-06T04:22:56.015Z,100.00
2023-02-06T04:25:22.692Z,100.00
2023-02-06T04:27:49.552Z,100.00
2023-02-06T04:30:17.600Z,100.00
2023-02-06T04:32:44.597Z,100.00
2023-02-06T04:35:11.328Z,100.00
2023-02-06T04:37:39.002Z,100.00
2023-02-06T04:40:06.799Z,100.00
2023-02-06T04:42:33.624Z,100.00
2023-02-06T04:45:00.381Z,100.00
2023-02-06T04:47:27.089Z,100.00
2023-02-06T04:49:53.920Z,100.00
2023-02-06T04:52:20.969Z,100.00
2023-02-06T04:54:47.816Z,100.00
2023-02-06T04:57:14.765Z,100.00
2023-02-06T04:59:41.782Z,100.00
2023-02-06T05:02:08.519Z,100.00
2023-02-06T05:04:35.786Z,100.00
2023-02-06T05:07:05.354Z,100.00
2023-02-06T05:09:32.886Z,100.00
2023-02-06T05:11:59.897Z,100.00
2023-02-06T05:14:26.718Z,100.00
2023-02-06T05:16:56.631Z,100.00
2023-02-06T05:19:23.452Z,100.00
2023-02-06T05:21:50.089Z,100.00
2023-02-06T05:24:17.923Z,100.00
2023-02-06T05:26:45.943Z,100.00
2023-02-06T05:29:12.633Z,100.00
2023-02-06T05:31:39.725Z,100.00
2023-02-06T05:34:07.476Z,100.00
2023-02-06T05:36:34.306Z,100.00
2023-02-06T05:39:01.155Z,100.00
2023-02-06T05:41:30.256Z,100.00
2023-02-06T05:43:56.997Z,100.00
2023-02-06T05:46:23.983Z,100.00
2023-02-06T05:48:51.307Z,100.00
2023-02-06T05:51:18.902Z,100.00
2023-02-06T05:53:45.857Z,100.00
2023-02-06T05:56:12.563Z,100.00
2023-02-06T05:58:39.326Z,100.00
2023-02-06T06:01:06.266Z,100.00
2023-02-06T06:03:33.982Z,100.00
2023-02-06T06:06:00.891Z,100.00
2023-02-06T06:08:28.010Z,100.00
2023-02-06T06:10:54.760Z,100.00
2023-02-06T06:13:21.471Z,100.00
2023-02-06T06:15:51.177Z,100.00
2023-02-06T06:18:19.631Z,100.00
2023-02-06T06:20:47.015Z,100.00
2023-02-06T06:23:15.727Z,100.00
2023-02-06T06:25:42.538Z,100.00
2023-02-06T06:28:10.300Z,100.00
2023-02-06T06:30:38.037Z,100.00
2023-02-06T06:33:05.049Z,100.00
2023-02-06T06:35:32.096Z,100.00
2023-02-06T06:37:59.460Z,100.00
2023-02-06T06:40:26.188Z,100.00
2023-02-06T06:42:53.462Z,100.00
2023-02-06T06:45:20.294Z,100.00
2023-02-06T06:47:47.002Z,100.00
2023-02-06T06:50:14.533Z,100.00
2023-02-06T06:52:41.764Z,100.00
2023-02-06T06:55:08.714Z,100.00
2023-02-06T06:57:35.848Z,100.00
2023-02-06T07:00:03.703Z,100.00
2023-02-06T07:02:31.087Z,100.00
2023-02-06T10:34:34.076Z,100.00
2023-02-06T10:37:09.939Z,100.00
2023-02-06T10:39:37.245Z,100.00
2023-02-06T10:42:16.573Z,100.00
2023-02-06T10:45:19.567Z,100.00
2023-02-06T10:47:56.799Z,100.00
2023-02-06T10:50:23.667Z,100.00
2023-02-06T10:52:54.434Z,100.00
2023-02-06T10:55:57.085Z,100.00
2023-02-06T10:58:41.133Z,100.00
2023-02-06T11:01:23.920Z,100.00
2023-02-06T11:03:59.422Z,100.00
2023-02-06T11:06:26.760Z,100.00
2023-02-06T11:08:54.499Z,100.00
2023-02-06T11:11:23.304Z,100.00
2023-02-06T11:13:56.815Z,100.00
2023-02-06T11:16:26.048Z,100.00
2023-02-06T11:18:54.693Z,100.00
2023-02-06T11:21:40.896Z,100.00
2023-02-06T11:24:12.046Z,100.00
2023-02-06T11:26:46.886Z,100.00
2023-02-06T11:29:19.146Z,100.00
2023-02-06T11:31:54.024Z,100.00
2023-02-06T11:34:42.430Z,100.00
2023-02-06T11:37:39.785Z,100.00
2023-02-06T11:40:28.076Z,100.00
2023-02-06T11:43:36.858Z,100.00
2023-02-06T11:46:11.173Z,100.00
2023-02-06T11:48:39.815Z,100.00
2023-02-06T11:51:07.225Z,100.00
2023-02-06T11:53:35.084Z,100.00
2023-02-06T11:56:14.652Z,100.00
2023-02-06T11:58:41.585Z,100.00
2023-02-06T12:01:17.311Z,100.00
2023-02-06T12:03:51.232Z,100.00
2023-02-06T12:06:30.332Z,100.00
2023-02-06T12:08:59.088Z,100.00
2023-02-06T12:11:41.271Z,100.00
2023-02-06T12:14:19.829Z,100.00
2023-02-06T12:16:48.618Z,100.00
2023-02-06T12:19:22.637Z,100.00
2023-02-06T12:21:54.686Z,100.00
2023-02-06T12:24:34.605Z,100.00
2023-02-06T12:27:11.112Z,88.71
2023-02-06T12:29:43.886Z,77.77
2023-02-06T12:32:18.095Z,75.37
2023-02-06T12:34:55.776Z,76.16
2023-02-06T12:37:26.387Z,75.34
2023-02-06T12:39:54.155Z,72.18
2023-02-06T12:42:36.309Z,70.52
2023-02-06T12:45:17.255Z,67.37
2023-02-06T12:48:20.200Z,63.11
2023-02-06T12:51:12.492Z,64.41
2023-02-06T12:53:46.724Z,65.68
2023-02-06T12:56:22.618Z,67.52
2023-02-06T12:59:09.296Z,70.76
2023-02-06T13:01:48.628Z,73.97
2023-02-06T13:04:20.170Z,76.37
2023-02-06T13:07:17.121Z,88.71
2023-02-06T13:10:08.653Z,98.91
2023-02-06T13:12:36.534Z,100.00
2023-02-06T13:15:07.611Z,100.00
2023-02-06T13:17:36.999Z,100.00
2023-02-06T13:20:04.883Z,100.00
2023-02-06T13:22:45.567Z,100.00
2023-02-06T13:25:28.182Z,100.00
2023-02-06T13:28:00.417Z,100.00
2023-02-06T13:30:30.769Z,100.00
2023-02-06T13:33:22.060Z,100.00
2023-02-06T13:36:03.528Z,100.00
2023-02-06T13:38:34.295Z,100.00
2023-02-06T14:56:31.601Z,100.00
2023-02-06T14:59:18.959Z,100.00
2023-02-06T15:01:50.115Z,100.00
2023-02-06T15:04:23.600Z,100.00
2023-02-06T15:06:54.545Z,100.00
2023-02-06T15:09:30.244Z,100.00
2023-02-06T15:12:26.807Z,100.00
2023-02-06T15:14:55.969Z,100.00
2023-02-06T15:17:26.638Z,100.00
2023-02-06T15:20:25.259Z,100.00
2023-02-06T15:23:04.971Z,100.00
2023-02-06T15:25:42.250Z,100.00
2023-02-06T15:28:16.701Z,100.00
2023-02-06T15:30:45.185Z,100.00
2023-02-06T15:33:18.194Z,100.00
2023-02-06T15:35:50.280Z,100.00
2023-02-06T15:38:19.386Z,100.00
2023-02-06T15:41:06.817Z,100.00
2023-02-06T15:43:35.110Z,100.00
2023-02-06T15:46:04.998Z,100.00
2023-02-06T15:48:43.840Z,100.00
2023-02-06T15:51:38.288Z,100.00
2023-02-06T15:54:18.051Z,100.00
2023-02-06T15:56:56.926Z,100.00
2023-02-06T15:59:26.140Z,100.00
2023-02-06T16:01:55.716Z,100.00
2023-02-06T16:04:24.804Z,100.00
2023-02-06T19:27:34.092Z,100.00
2023-02-06T19:30:02.806Z,100.00
2023-02-06T19:32:32.354Z,100.00
2023-02-06T19:35:01.057Z,100.00
2023-02-06T19:37:29.731Z,100.00
2023-02-06T19:40:00.080Z,100.00
2023-02-06T19:42:29.821Z,100.00
2023-02-06T19:45:00.162Z,100.00
2023-02-06T19:47:28.447Z,100.00
2023-02-06T19:49:59.348Z,100.00
2023-02-06T19:52:29.181Z,100.00
2023-02-06T19:54:57.448Z,100.00
2023-02-06T19:57:26.300Z,100.00
2023-02-06T19:59:54.503Z,100.00
2023-02-06T20:02:28.477Z,100.00
2023-02-06T20:04:57.223Z,100.00
2023-02-06T20:07:26.996Z,100.00
2023-02-06T20:09:57.343Z,100.00
2023-02-06T20:12:27.079Z,100.00
2023-02-06T20:14:56.019Z,100.00
2023-02-06T20:17:25.395Z,100.00
2023-02-06T20:19:53.697Z,100.00
2023-02-06T20:22:22.340Z,100.00
2023-02-06T20:24:50.645Z,100.00
2023-02-06T20:27:19.070Z,100.00
2023-02-06T20:29:47.390Z,100.00
2023-02-06T20:32:16.790Z,100.00
2023-02-06T20:34:46.350Z,100.00
2023-02-06T20:37:14.895Z,100.00
2023-02-06T20:39:44.329Z,100.00
2023-02-06T20:42:13.057Z,100.00
2023-02-06T20:44:41.385Z,100.00
2023-02-06T20:47:09.478Z,100.00
2023-02-06T20:49:37.540Z,100.00
2023-02-06T20:52:06.542Z,100.00
2023-02-06T20:54:34.944Z,100.00
2023-02-06T20:57:03.671Z,100.00
2023-02-06T20:59:32.039Z,100.00
2023-02-06T21:02:00.529Z,100.00
2023-02-06T21:04:29.230Z,100.00
2023-02-06T21:06:57.836Z,100.00
2023-02-06T21:09:26.756Z,100.00
2023-02-06T21:11:55.061Z,100.00
2023-02-06T21:14:25.490Z,100.00
2023-02-06T21:16:54.557Z,100.00
2023-02-06T21:19:23.247Z,100.00
2023-02-06T21:21:51.832Z,100.00
2023-02-06T21:24:19.948Z,100.00
2023-02-06T21:26:48.401Z,100.00
2023-02-06T21:29:16.576Z,100.00
2023-02-06T21:31:45.125Z,100.00
2023-02-06T21:34:16.520Z,100.00
2023-02-06T21:36:44.993Z,100.00
2023-02-06T21:39:18.155Z,100.00
2023-02-06T21:41:46.814Z,100.00
2023-02-06T21:44:15.044Z,100.00
2023-02-06T21:46:43.270Z,100.00
2023-02-06T21:49:13.005Z,100.00
2023-02-06T21:51:41.222Z,100.00
2023-02-06T21:54:09.548Z,100.00
2023-02-06T21:56:40.570Z,100.00
2023-02-06T21:59:09.972Z,100.00
2023-02-06T22:01:40.671Z,100.00
2023-02-06T22:04:12.958Z,100.00
2023-02-06T22:06:41.952Z,100.00
2023-02-06T22:09:15.345Z,100.00
2023-02-06T22:11:45.306Z,100.00
2023-02-06T22:14:16.470Z,100.00
2023-02-06T22:16:48.728Z,100.00
2023-02-06T22:19:18.012Z,100.00
2023-02-06T22:21:49.014Z,100.00
2023-02-06T22:24:18.246Z,100.00
2023-02-06T22:26:46.597Z,100.00
2023-02-06T22:29:16.078Z,100.00
2023-02-06T22:31:44.902Z,100.00
2023-02-06T22:34:18.907Z,100.00
2023-02-06T22:36:51.264Z,100.00
2023-02-06T22:39:20.087Z,100.00
2023-02-06T22:41:49.237Z,100.00
2023-02-06T22:44:19.176Z,100.00
2023-02-06T22:46:52.583Z,100.00
2023-02-06T22:49:21.497Z,100.00
2023-02-06T22:51:51.099Z,100.00
2023-02-06T22:54:19.184Z,100.00
2023-02-06T22:56:47.316Z,100.00
2023-02-06T22:59:23.926Z,100.00
2023-02-06T23:01:58.098Z,100.00
2023-02-06T23:04:30.644Z,100.00
2023-02-06T23:06:59.010Z,100.00
2023-02-06T23:09:30.104Z,100.00
2023-02-06T23:11:59.008Z,100.00
2023-02-06T23:14:28.736Z,100.00
2023-02-06T23:17:00.280Z,100.00
2023-02-06T23:19:29.204Z,100.00
2023-02-06T23:21:57.469Z,100.00
2023-02-06T23:24:25.945Z,100.00
2023-02-06T23:26:54.532Z,100.00
2023-02-06T23:29:23.328Z,100.00
2023-02-06T23:31:51.870Z,100.00
2023-02-06T23:34:23.831Z,100.00
2023-02-06T23:36:56.147Z,100.00
2023-02-06T23:39:24.543Z,100.00
2023-02-06T23:41:52.943Z,100.00
2023-02-06T23:44:21.009Z,100.00
2023-02-06T23:46:49.327Z,100.00
2023-02-06T23:49:17.454Z,100.00
2023-02-06T23:51:47.237Z,100.00
2023-02-06T23:54:15.753Z,100.00
2023-02-06T23:56:46.565Z,100.00
2023-02-06T23:59:14.861Z,100.00
